createdAt,value
2022-08-17T00:00:49.444Z,1003.60
2022-08-17T00:01:44.943Z,1003.60
2022-08-17T00:02:38.322Z,1003.55
2022-08-17T00:03:34.219Z,1003.55
2022-08-17T00:04:34.201Z,1003.53
2022-08-17T00:05:34.184Z,1003.48
2022-08-17T00:06:34.176Z,1003.46
2022-08-17T00:07:34.162Z,1003.46
2022-08-17T00:08:34.151Z,1003.46
2022-08-17T00:09:34.142Z,1003.44
2022-08-17T00:10:34.128Z,1003.41
2022-08-17T00:11:34.112Z,1003.40
2022-08-17T00:12:43.193Z,1003.38
2022-08-17T00:13:34.101Z,1003.40
2022-08-17T00:14:34.077Z,1003.39
2022-08-17T00:15:34.060Z,1003.37
2022-08-17T00:16:50.448Z,1003.37
2022-08-17T00:17:34.035Z,1003.38
2022-08-17T00:19:01.829Z,1003.34
2022-08-17T00:19:34.039Z,1003.36
2022-08-17T00:20:34.870Z,1003.36
2022-08-17T00:21:56.399Z,1003.35
2022-08-17T00:22:36.427Z,1003.35
2022-08-17T00:23:33.968Z,1003.35
2022-08-17T00:24:33.954Z,1003.37
2022-08-17T00:25:33.943Z,1003.34
2022-08-17T00:26:44.447Z,1003.31
2022-08-17T00:27:33.914Z,1003.40
2022-08-17T00:28:33.902Z,1003.37
2022-08-17T00:29:33.886Z,1003.35
2022-08-17T00:30:51.344Z,1003.34
2022-08-17T00:31:33.859Z,1003.36
2022-08-17T00:33:13.838Z,1003.34
2022-08-17T00:33:33.841Z,1003.37
2022-08-17T00:34:33.826Z,1003.33
2022-08-17T00:35:33.812Z,1003.34
2022-08-17T00:36:33.798Z,1003.34
2022-08-17T00:37:33.788Z,1003.29
2022-08-17T00:38:33.777Z,1003.29
2022-08-17T00:39:33.810Z,1003.27
2022-08-17T00:40:44.229Z,1003.25
2022-08-17T00:41:33.737Z,1003.23
2022-08-17T00:42:33.724Z,1003.25
2022-08-17T00:43:33.710Z,1003.23
2022-08-17T00:44:33.697Z,1003.21
2022-08-17T00:45:33.688Z,1003.22
2022-08-17T00:46:33.675Z,1003.22
2022-08-17T00:47:33.666Z,1003.26
2022-08-17T00:48:33.644Z,1003.21
2022-08-17T00:49:33.635Z,1003.23
2022-08-17T00:50:33.624Z,1003.21
2022-08-17T00:51:33.610Z,1003.21
2022-08-17T00:52:33.595Z,1003.21
2022-08-17T00:53:33.577Z,1003.23
2022-08-17T00:54:33.582Z,1003.23
2022-08-17T00:55:33.558Z,1003.25
2022-08-17T00:56:33.548Z,1003.23
2022-08-17T00:57:33.533Z,1003.24
2022-08-17T00:58:36.482Z,1003.20
2022-08-17T00:59:33.509Z,1003.19
2022-08-17T01:00:33.500Z,1003.21
2022-08-17T01:01:33.501Z,1003.20
2022-08-17T01:02:40.419Z,1003.19
2022-08-17T01:03:33.456Z,1003.20
2022-08-17T01:04:33.457Z,1003.23
2022-08-17T01:05:33.426Z,1003.21
2022-08-17T01:06:33.419Z,1003.21
2022-08-17T01:07:33.406Z,1003.21
2022-08-17T01:08:33.397Z,1003.21
2022-08-17T01:09:33.381Z,1003.20
2022-08-17T01:11:01.058Z,1003.20
2022-08-17T01:11:33.354Z,1003.23
2022-08-17T01:12:33.341Z,1003.23
2022-08-17T01:13:38.222Z,1003.25
2022-08-17T01:14:33.322Z,1003.28
2022-08-17T01:15:33.302Z,1003.26
2022-08-17T01:16:33.291Z,1003.27
2022-08-17T01:17:33.276Z,1003.24
2022-08-17T01:18:33.264Z,1003.24
2022-08-17T01:19:33.251Z,1003.23
2022-08-17T01:20:43.083Z,1003.26
2022-08-17T01:21:33.224Z,1003.23
2022-08-17T01:22:33.216Z,1003.24
2022-08-17T01:23:33.195Z,1003.22
2022-08-17T01:24:33.746Z,1003.26
2022-08-17T01:25:33.172Z,1003.29
2022-08-17T01:26:33.160Z,1003.29
2022-08-17T01:27:33.153Z,1003.29
2022-08-17T01:28:53.039Z,1003.30
2022-08-17T01:29:33.125Z,1003.25
2022-08-17T01:30:58.678Z,1003.22
2022-08-17T01:31:33.095Z,1003.25
2022-08-17T01:32:33.083Z,1003.23
2022-08-17T01:33:33.076Z,1003.26
2022-08-17T01:34:42.452Z,1003.24
2022-08-17T01:35:33.046Z,1003.20
2022-08-17T01:36:33.042Z,1003.21
2022-08-17T01:37:33.025Z,1003.19
2022-08-17T01:38:33.010Z,1003.21
2022-08-17T01:39:33.067Z,1003.21
2022-08-17T01:40:32.986Z,1003.21
2022-08-17T01:41:32.968Z,1003.19
2022-08-17T01:42:32.959Z,1003.19
2022-08-17T01:43:32.943Z,1003.19
2022-08-17T01:44:32.930Z,1003.23
2022-08-17T01:45:32.930Z,1003.18
2022-08-17T01:46:32.907Z,1003.15
2022-08-17T01:47:32.893Z,1003.16
2022-08-17T01:48:32.878Z,1003.13
2022-08-17T01:49:32.866Z,1003.12
2022-08-17T01:50:32.857Z,1003.14
2022-08-17T01:51:33.164Z,1003.12
2022-08-17T01:52:32.825Z,1003.13
2022-08-17T01:53:32.819Z,1003.11
2022-08-17T01:54:32.803Z,1003.12
2022-08-17T01:55:32.786Z,1003.12
2022-08-17T01:56:32.776Z,1003.16
2022-08-17T01:57:32.763Z,1003.16
2022-08-17T01:58:32.749Z,1003.14
2022-08-17T01:59:32.734Z,1003.14
2022-08-17T02:01:00.084Z,1003.10
2022-08-17T02:01:32.818Z,1003.13
2022-08-17T02:02:32.700Z,1003.09
2022-08-17T02:03:32.689Z,1003.07
2022-08-17T02:04:32.676Z,1003.06
2022-08-17T02:05:32.659Z,1003.03
2022-08-17T02:06:52.916Z,1003.03
2022-08-17T02:07:32.632Z,1003.06
2022-08-17T02:08:39.268Z,1003.04
2022-08-17T02:09:32.606Z,1003.06
2022-08-17T02:10:33.963Z,1003.07
2022-08-17T02:11:32.582Z,1003.07
2022-08-17T02:12:39.077Z,1003.08
2022-08-17T02:13:32.552Z,1003.09
2022-08-17T02:14:32.544Z,1003.06
2022-08-17T02:15:32.530Z,1003.06
2022-08-17T02:16:37.420Z,1003.02
2022-08-17T02:17:32.503Z,1003.02
2022-08-17T02:18:32.489Z,1003.04
2022-08-17T02:19:32.476Z,1003.05
2022-08-17T02:20:41.876Z,1003.04
2022-08-17T02:21:32.447Z,1003.04
2022-08-17T02:22:32.430Z,1003.06
2022-08-17T02:23:32.421Z,1003.06
2022-08-17T02:25:00.360Z,1003.05
2022-08-17T02:25:32.393Z,1003.02
2022-08-17T02:26:32.383Z,1003.04
2022-08-17T02:27:32.369Z,1003.04
2022-08-17T02:28:32.356Z,1003.03
2022-08-17T02:29:32.343Z,1002.96
2022-08-17T02:30:59.055Z,1002.98
2022-08-17T02:31:32.324Z,1002.96
2022-08-17T02:32:32.298Z,1002.98
2022-08-17T02:33:42.934Z,1002.97
2022-08-17T02:34:32.275Z,1002.95
2022-08-17T02:35:32.260Z,1002.93
2022-08-17T02:36:32.248Z,1002.94
2022-08-17T02:37:32.235Z,1002.94
2022-08-17T02:38:32.225Z,1002.95
2022-08-17T02:39:32.288Z,1002.94
2022-08-17T02:40:36.425Z,1002.93
2022-08-17T02:41:32.190Z,1002.91
2022-08-17T02:42:32.171Z,1002.95
2022-08-17T02:43:32.159Z,1002.95
2022-08-17T02:44:39.199Z,1002.96
2022-08-17T02:45:32.132Z,1002.96
2022-08-17T02:46:32.122Z,1002.94
2022-08-17T02:47:32.107Z,1002.95
2022-08-17T02:48:32.267Z,1002.97
2022-08-17T02:49:32.078Z,1002.99
2022-08-17T02:50:32.065Z,1002.98
2022-08-17T02:51:32.053Z,1003.00
2022-08-17T02:52:42.533Z,1002.98
2022-08-17T02:53:35.833Z,1003.02
2022-08-17T02:54:41.827Z,1002.97
2022-08-17T02:55:31.996Z,1003.04
2022-08-17T02:56:31.985Z,1003.04
2022-08-17T02:57:31.978Z,1003.06
2022-08-17T02:58:35.032Z,1003.04
2022-08-17T02:59:31.947Z,1003.01
2022-08-17T03:00:31.932Z,1003.00
2022-08-17T03:01:31.994Z,1003.02
2022-08-17T03:02:31.911Z,1003.00
2022-08-17T03:03:31.890Z,1003.00
2022-08-17T03:04:35.110Z,1003.02
2022-08-17T03:05:31.864Z,1003.06
2022-08-17T03:06:31.858Z,1003.02
2022-08-17T03:07:31.840Z,1003.02
2022-08-17T03:08:31.842Z,1003.03
2022-08-17T03:09:31.808Z,1002.97
2022-08-17T03:10:31.798Z,1003.01
2022-08-17T03:11:31.785Z,1002.97
2022-08-17T03:12:31.770Z,1003.00
2022-08-17T03:13:31.759Z,1002.99
2022-08-17T03:14:31.745Z,1002.98
2022-08-17T03:15:31.738Z,1002.94
2022-08-17T03:16:31.723Z,1002.95
2022-08-17T03:17:31.701Z,1002.93
2022-08-17T03:18:31.688Z,1002.92
2022-08-17T03:19:31.679Z,1002.95
2022-08-17T03:20:31.667Z,1002.94
2022-08-17T03:21:31.648Z,1002.93
2022-08-17T03:22:36.187Z,1002.93
2022-08-17T03:23:31.627Z,1002.95
2022-08-17T03:24:31.615Z,1002.90
2022-08-17T03:25:31.595Z,1002.92
2022-08-17T03:26:31.584Z,1002.88
2022-08-17T03:27:31.570Z,1002.87
2022-08-17T03:28:31.555Z,1002.87
2022-08-17T03:29:31.555Z,1002.84
2022-08-17T03:30:31.527Z,1002.83
2022-08-17T03:31:31.519Z,1002.82
2022-08-17T03:32:31.500Z,1002.83
2022-08-17T03:33:31.487Z,1002.85
2022-08-17T03:34:31.475Z,1002.81
2022-08-17T03:35:31.459Z,1002.82
2022-08-17T03:36:31.445Z,1002.85
2022-08-17T03:37:31.435Z,1002.89
2022-08-17T03:38:39.004Z,1002.89
2022-08-17T03:39:31.510Z,1002.91
2022-08-17T03:40:34.501Z,1002.93
2022-08-17T03:41:31.381Z,1002.93
2022-08-17T03:42:32.979Z,1002.94
2022-08-17T03:43:31.350Z,1002.94
2022-08-17T03:44:31.339Z,1002.93
2022-08-17T03:45:31.322Z,1002.91
2022-08-17T03:46:35.194Z,1002.94
2022-08-17T03:47:31.301Z,1002.90
2022-08-17T03:48:31.286Z,1002.89
2022-08-17T03:49:31.270Z,1002.90
2022-08-17T03:50:31.255Z,1002.91
2022-08-17T03:51:33.490Z,1002.86
2022-08-17T03:52:31.230Z,1002.88
2022-08-17T03:53:31.215Z,1002.92
2022-08-17T03:54:31.202Z,1002.87
2022-08-17T03:55:36.113Z,1002.92
2022-08-17T03:56:31.177Z,1002.93
2022-08-17T03:57:31.161Z,1002.91
2022-08-17T03:58:31.153Z,1002.91
2022-08-17T03:59:31.132Z,1002.92
2022-08-17T04:00:31.123Z,1002.93
2022-08-17T04:01:31.175Z,1002.92
2022-08-17T04:02:31.097Z,1002.91
2022-08-17T04:03:31.085Z,1002.93
2022-08-17T04:04:31.065Z,1002.95
2022-08-17T04:05:31.049Z,1002.95
2022-08-17T04:06:31.042Z,1002.97
2022-08-17T04:07:31.020Z,1002.95
2022-08-17T04:08:31.013Z,1002.96
2022-08-17T04:09:30.998Z,1002.95
2022-08-17T04:10:30.992Z,1002.97
2022-08-17T04:11:30.968Z,1002.96
2022-08-17T04:12:31.387Z,1002.96
2022-08-17T04:13:30.945Z,1003.00
2022-08-17T04:14:30.926Z,1003.01
2022-08-17T04:15:30.916Z,1003.00
2022-08-17T04:16:30.901Z,1003.02
2022-08-17T04:17:30.888Z,1002.97
2022-08-17T04:18:30.874Z,1002.97
2022-08-17T04:19:30.859Z,1003.02
2022-08-17T04:20:30.847Z,1003.01
2022-08-17T04:21:30.834Z,1003.01
2022-08-17T04:22:34.199Z,1002.98
2022-08-17T04:23:30.808Z,1003.00
2022-08-17T04:24:30.794Z,1002.98
2022-08-17T04:25:30.787Z,1003.00
2022-08-17T04:26:53.024Z,1002.98
2022-08-17T04:27:30.750Z,1002.96
2022-08-17T04:28:30.737Z,1003.01
2022-08-17T04:29:55.183Z,1003.01
2022-08-17T04:30:30.713Z,1003.01
2022-08-17T04:31:30.699Z,1003.03
2022-08-17T04:33:03.939Z,1003.05
2022-08-17T04:33:30.667Z,1003.05
2022-08-17T04:34:30.668Z,1003.08
2022-08-17T04:35:30.651Z,1003.09
2022-08-17T04:36:30.627Z,1003.11
2022-08-17T04:37:30.618Z,1003.13
2022-08-17T04:38:30.608Z,1003.14
2022-08-17T04:39:31.542Z,1003.19
2022-08-17T04:40:30.571Z,1003.21
2022-08-17T04:41:30.569Z,1003.24
2022-08-17T04:42:30.545Z,1003.24
2022-08-17T04:43:30.529Z,1003.24
2022-08-17T04:44:37.217Z,1003.26
2022-08-17T04:45:32.075Z,1003.25
2022-08-17T04:46:30.495Z,1003.26
2022-08-17T04:47:30.482Z,1003.26
2022-08-17T04:48:36.951Z,1003.28
2022-08-17T04:49:30.454Z,1003.28
2022-08-17T04:50:30.437Z,1003.31
2022-08-17T04:51:30.426Z,1003.29
2022-08-17T04:52:43.456Z,1003.28
2022-08-17T04:53:30.397Z,1003.30
2022-08-17T04:54:30.384Z,1003.29
2022-08-17T04:55:30.367Z,1003.30
2022-08-17T04:56:30.354Z,1003.32
2022-08-17T04:57:30.338Z,1003.31
2022-08-17T04:58:30.323Z,1003.32
2022-08-17T04:59:30.316Z,1003.33
2022-08-17T05:00:30.304Z,1003.32
2022-08-17T05:01:30.286Z,1003.31
2022-08-17T05:02:30.270Z,1003.33
2022-08-17T05:03:30.262Z,1003.31
2022-08-17T05:04:35.095Z,1003.31
2022-08-17T05:05:30.232Z,1003.38
2022-08-17T05:06:30.221Z,1003.36
2022-08-17T05:07:31.712Z,1003.41
2022-08-17T05:08:30.194Z,1003.41
2022-08-17T05:09:30.177Z,1003.44
2022-08-17T05:10:30.161Z,1003.44
2022-08-17T05:11:30.148Z,1003.45
2022-08-17T05:12:30.133Z,1003.46
2022-08-17T05:13:30.119Z,1003.47
2022-08-17T05:14:33.749Z,1003.46
2022-08-17T05:15:33.228Z,1003.53
2022-08-17T05:16:30.078Z,1003.50
2022-08-17T05:17:30.065Z,1003.49
2022-08-17T05:18:30.054Z,1003.51
2022-08-17T05:19:30.034Z,1003.48
2022-08-17T05:20:30.026Z,1003.49
2022-08-17T05:21:30.019Z,1003.55
2022-08-17T05:22:29.998Z,1003.51
2022-08-17T05:23:41.842Z,1003.55
2022-08-17T05:24:38.585Z,1003.58
2022-08-17T05:25:29.959Z,1003.58
2022-08-17T05:26:29.942Z,1003.58
2022-08-17T05:27:35.066Z,1003.58
2022-08-17T05:28:29.918Z,1003.60
2022-08-17T05:29:34.290Z,1003.57
2022-08-17T05:30:29.892Z,1003.54
2022-08-17T05:31:29.887Z,1003.53
2022-08-17T05:32:38.457Z,1003.56
2022-08-17T05:33:29.847Z,1003.55
2022-08-17T05:34:29.835Z,1003.54
2022-08-17T05:35:29.818Z,1003.54
2022-08-17T05:36:43.484Z,1003.57
2022-08-17T05:37:29.798Z,1003.56
2022-08-17T05:38:29.783Z,1003.54
2022-08-17T05:39:29.823Z,1003.48
2022-08-17T05:40:32.867Z,1003.51
2022-08-17T05:41:29.737Z,1003.50
2022-08-17T05:42:29.729Z,1003.51
2022-08-17T05:43:29.716Z,1003.51
2022-08-17T05:44:29.708Z,1003.48
2022-08-17T05:45:54.867Z,1003.50
2022-08-17T05:46:29.679Z,1003.53
2022-08-17T05:47:29.660Z,1003.52
2022-08-17T05:48:35.623Z,1003.56
2022-08-17T05:49:29.633Z,1003.56
2022-08-17T05:50:29.915Z,1003.55
2022-08-17T05:51:29.611Z,1003.54
2022-08-17T05:52:29.594Z,1003.53
2022-08-17T05:53:29.585Z,1003.55
2022-08-17T05:54:29.569Z,1003.55
2022-08-17T05:55:29.561Z,1003.55
2022-08-17T05:56:30.665Z,1003.55
2022-08-17T05:57:29.530Z,1003.53
2022-08-17T05:58:29.518Z,1003.51
2022-08-17T05:59:29.502Z,1003.51
2022-08-17T06:00:30.843Z,1003.52
2022-08-17T06:01:29.617Z,1003.47
2022-08-17T06:02:29.464Z,1003.48
2022-08-17T06:03:29.445Z,1003.47
2022-08-17T06:04:29.434Z,1003.46
2022-08-17T06:05:29.425Z,1003.44
2022-08-17T06:06:31.571Z,1003.47
2022-08-17T06:07:29.395Z,1003.45
2022-08-17T06:08:29.381Z,1003.46
2022-08-17T06:09:33.646Z,1003.48
2022-08-17T06:10:29.360Z,1003.45
2022-08-17T06:11:29.347Z,1003.46
2022-08-17T06:12:29.333Z,1003.46
2022-08-17T06:13:29.318Z,1003.47
2022-08-17T06:14:29.307Z,1003.46
2022-08-17T06:15:29.295Z,1003.39
2022-08-17T06:16:34.442Z,1003.41
2022-08-17T06:17:29.268Z,1003.41
2022-08-17T06:18:29.253Z,1003.40
2022-08-17T06:19:29.238Z,1003.39
2022-08-17T06:20:29.233Z,1003.38
2022-08-17T06:21:32.084Z,1003.36
2022-08-17T06:22:29.199Z,1003.38
2022-08-17T06:23:29.194Z,1003.38
2022-08-17T06:24:29.177Z,1003.36
2022-08-17T06:25:29.164Z,1003.35
2022-08-17T06:26:30.290Z,1003.35
2022-08-17T06:27:29.137Z,1003.37
2022-08-17T06:28:29.139Z,1003.35
2022-08-17T06:29:29.119Z,1003.34
2022-08-17T06:30:29.106Z,1003.37
2022-08-17T06:31:29.091Z,1003.37
2022-08-17T06:32:29.079Z,1003.36
2022-08-17T06:33:29.061Z,1003.36
2022-08-17T06:34:29.050Z,1003.38
2022-08-17T06:35:31.759Z,1003.39
2022-08-17T06:36:29.028Z,1003.39
2022-08-17T06:37:29.011Z,1003.38
2022-08-17T06:38:37.724Z,1003.38
2022-08-17T06:39:29.011Z,1003.36
2022-08-17T06:40:28.980Z,1003.41
2022-08-17T06:41:28.967Z,1003.37
2022-08-17T06:42:54.909Z,1003.39
2022-08-17T06:43:28.938Z,1003.41
2022-08-17T06:44:43.265Z,1003.38
2022-08-17T06:45:28.917Z,1003.38
2022-08-17T06:46:28.902Z,1003.37
2022-08-17T06:47:29.296Z,1003.38
2022-08-17T06:48:28.878Z,1003.38
2022-08-17T06:49:28.860Z,1003.38
2022-08-17T06:50:28.847Z,1003.40
2022-08-17T06:51:28.838Z,1003.43
2022-08-17T06:52:46.551Z,1003.43
2022-08-17T06:53:28.814Z,1003.39
2022-08-17T06:54:28.802Z,1003.40
2022-08-17T06:55:28.788Z,1003.37
2022-08-17T06:56:54.130Z,1003.38
2022-08-17T06:57:28.765Z,1003.38
2022-08-17T06:58:29.608Z,1003.38
2022-08-17T06:59:54.204Z,1003.33
2022-08-17T07:00:28.781Z,1003.36
2022-08-17T07:01:28.813Z,1003.37
2022-08-17T07:02:28.882Z,1003.36
2022-08-17T07:03:28.692Z,1003.37
2022-08-17T07:04:28.688Z,1003.39
2022-08-17T07:05:28.666Z,1003.38
2022-08-17T07:06:28.655Z,1003.38
2022-08-17T07:07:28.642Z,1003.41
2022-08-17T07:08:31.992Z,1003.43
2022-08-17T07:09:28.622Z,1003.41
2022-08-17T07:10:28.608Z,1003.42
2022-08-17T07:11:28.607Z,1003.43
2022-08-17T07:12:28.589Z,1003.41
2022-08-17T07:13:28.597Z,1003.42
2022-08-17T07:14:28.566Z,1003.42
2022-08-17T07:15:28.562Z,1003.46
2022-08-17T07:16:28.541Z,1003.49
2022-08-17T07:17:47.058Z,1003.50
2022-08-17T07:18:28.519Z,1003.60
2022-08-17T07:19:28.513Z,1003.62
2022-08-17T07:20:28.499Z,1003.79
2022-08-17T07:21:28.489Z,1003.85
2022-08-17T07:22:28.482Z,1003.87
2022-08-17T07:23:28.478Z,1003.92
2022-08-17T07:24:29.995Z,1003.93
2022-08-17T07:25:28.451Z,1003.93
2022-08-17T07:26:28.449Z,1003.93
2022-08-17T07:27:28.440Z,1003.89
2022-08-17T07:28:28.428Z,1003.94
2022-08-17T07:29:28.423Z,1003.96
2022-08-17T07:30:28.415Z,1003.99
2022-08-17T07:31:28.411Z,1004.03
2022-08-17T07:32:28.397Z,1004.05
2022-08-17T07:33:28.391Z,1004.05
2022-08-17T07:34:29.234Z,1004.02
2022-08-17T07:35:31.324Z,1004.02
2022-08-17T07:36:30.198Z,1004.07
2022-08-17T07:37:28.370Z,1004.06
2022-08-17T07:38:28.533Z,1004.08
2022-08-17T07:39:28.406Z,1004.01
2022-08-17T07:40:28.410Z,1004.00
2022-08-17T07:41:58.734Z,1003.98
2022-08-17T07:42:28.351Z,1003.94
2022-08-17T07:43:29.450Z,1003.85
2022-08-17T07:44:28.343Z,1003.83
2022-08-17T07:45:28.340Z,1003.72
2022-08-17T07:46:28.337Z,1003.67
2022-08-17T07:47:28.334Z,1003.68
2022-08-17T07:48:28.327Z,1003.72
2022-08-17T07:49:28.320Z,1003.73
2022-08-17T07:50:28.318Z,1003.68
2022-08-17T07:51:28.314Z,1003.68
2022-08-17T07:52:50.553Z,1003.66
2022-08-17T07:53:28.311Z,1003.63
2022-08-17T07:54:28.299Z,1003.66
2022-08-17T07:55:28.290Z,1003.61
2022-08-17T07:56:28.283Z,1003.67
2022-08-17T07:57:30.086Z,1003.63
2022-08-17T07:58:28.267Z,1003.66
2022-08-17T07:59:30.563Z,1003.61
2022-08-17T08:00:31.974Z,1003.58
2022-08-17T08:01:39.600Z,1003.63
2022-08-17T08:02:33.713Z,1003.61
2022-08-17T08:03:28.444Z,1003.60
2022-08-17T08:04:49.952Z,1003.60
2022-08-17T08:05:30.749Z,1003.62
2022-08-17T08:06:28.203Z,1003.65
2022-08-17T08:07:28.196Z,1003.64
2022-08-17T08:08:28.301Z,1003.62
2022-08-17T08:09:28.179Z,1003.64
2022-08-17T08:10:28.171Z,1003.61
2022-08-17T08:11:28.155Z,1003.60
2022-08-17T08:12:28.972Z,1003.60
2022-08-17T08:13:28.140Z,1003.61
2022-08-17T08:14:28.536Z,1003.63
2022-08-17T08:15:28.121Z,1003.59
2022-08-17T08:16:28.107Z,1003.62
2022-08-17T08:17:28.100Z,1003.61
2022-08-17T08:18:54.423Z,1003.64
2022-08-17T08:19:28.084Z,1003.64
2022-08-17T08:20:51.460Z,1003.63
2022-08-17T08:21:28.065Z,1003.61
2022-08-17T08:22:28.052Z,1003.64
2022-08-17T08:23:28.038Z,1003.64
2022-08-17T08:24:30.894Z,1003.66
2022-08-17T08:25:28.798Z,1003.70
2022-08-17T08:26:28.012Z,1003.69
2022-08-17T08:27:28.004Z,1003.66
2022-08-17T08:28:27.995Z,1003.66
2022-08-17T08:29:27.978Z,1003.67
2022-08-17T08:30:27.970Z,1003.67
2022-08-17T08:31:27.959Z,1003.73
2022-08-17T08:32:27.953Z,1003.72
2022-08-17T08:33:27.939Z,1003.78
2022-08-17T08:34:59.056Z,1003.73
2022-08-17T08:35:27.915Z,1003.76
2022-08-17T08:37:12.748Z,1003.74
2022-08-17T08:37:35.538Z,1003.73
2022-08-17T08:38:28.189Z,1003.69
2022-08-17T08:39:27.959Z,1003.71
2022-08-17T08:40:27.863Z,1003.69
2022-08-17T08:41:27.854Z,1003.71
2022-08-17T08:42:27.844Z,1003.72
2022-08-17T08:43:27.836Z,1003.74
2022-08-17T08:45:01.121Z,1003.75
2022-08-17T08:45:27.810Z,1003.76
2022-08-17T08:46:27.804Z,1003.76
2022-08-17T08:47:27.794Z,1003.75
2022-08-17T08:48:55.933Z,1003.77
2022-08-17T08:49:45.580Z,1003.76
2022-08-17T08:50:37.291Z,1003.79
2022-08-17T08:51:27.755Z,1003.78
2022-08-17T08:52:27.745Z,1003.84
2022-08-17T08:53:27.729Z,1003.84
2022-08-17T08:54:27.722Z,1003.84
2022-08-17T08:55:27.710Z,1003.78
2022-08-17T08:56:27.699Z,1003.80
2022-08-17T08:57:33.494Z,1003.78
2022-08-17T08:58:32.212Z,1003.87
2022-08-17T08:59:27.681Z,1003.79
2022-08-17T09:00:27.661Z,1003.77
2022-08-17T09:01:27.718Z,1003.93
2022-08-17T09:02:27.643Z,1004.11
2022-08-17T09:03:51.255Z,1003.81
2022-08-17T09:04:27.621Z,1004.01
2022-08-17T09:05:27.620Z,1004.02
2022-08-17T09:06:32.488Z,1003.77
2022-08-17T09:07:27.594Z,1003.80
2022-08-17T09:08:27.613Z,1003.76
2022-08-17T09:09:27.580Z,1003.82
2022-08-17T09:10:27.569Z,1003.78
2022-08-17T09:11:27.563Z,1003.71
2022-08-17T09:12:27.557Z,1003.75
2022-08-17T09:13:27.547Z,1003.67
2022-08-17T09:14:28.708Z,1003.65
2022-08-17T09:15:27.588Z,1003.61
2022-08-17T09:16:27.519Z,1003.66
2022-08-17T09:17:27.518Z,1003.68
2022-08-17T09:19:00.418Z,1003.74
2022-08-17T09:19:27.494Z,1003.63
2022-08-17T09:20:28.677Z,1003.59
2022-08-17T09:21:27.491Z,1003.64
2022-08-17T09:22:27.466Z,1003.66
2022-08-17T09:23:27.463Z,1003.66
2022-08-17T09:24:27.464Z,1003.65
2022-08-17T09:25:27.450Z,1003.65
2022-08-17T09:26:27.438Z,1003.65
2022-08-17T09:27:27.424Z,1003.63
2022-08-17T09:28:27.421Z,1003.80
2022-08-17T09:29:27.406Z,1003.79
2022-08-17T09:30:27.400Z,1003.70
2022-08-17T09:31:32.735Z,1003.74
2022-08-17T09:32:27.382Z,1003.62
2022-08-17T09:33:27.373Z,1003.63
2022-08-17T09:34:31.995Z,1003.65
2022-08-17T09:35:36.579Z,1003.62
2022-08-17T09:36:27.349Z,1003.66
2022-08-17T09:37:27.347Z,1003.65
2022-08-17T09:38:32.184Z,1003.66
2022-08-17T09:39:27.393Z,1003.70
2022-08-17T09:40:27.320Z,1003.68
2022-08-17T09:41:27.316Z,1003.69
2022-08-17T09:42:27.299Z,1003.73
2022-08-17T09:43:27.285Z,1003.70
2022-08-17T09:44:27.292Z,1003.68
2022-08-17T09:45:27.272Z,1003.64
2022-08-17T09:46:27.263Z,1003.62
2022-08-17T09:47:27.250Z,1003.59
2022-08-17T09:48:27.243Z,1003.60
2022-08-17T09:49:27.246Z,1003.58
2022-08-17T09:51:03.266Z,1003.63
2022-08-17T09:51:27.241Z,1003.60
2022-08-17T09:52:27.217Z,1003.62
2022-08-17T09:53:27.205Z,1003.65
2022-08-17T09:54:40.995Z,1003.64
2022-08-17T09:55:27.193Z,1003.64
2022-08-17T09:56:27.172Z,1003.66
2022-08-17T09:57:31.665Z,1003.63
2022-08-17T09:58:29.239Z,1003.63
2022-08-17T09:59:27.144Z,1003.61
2022-08-17T10:00:27.142Z,1003.61
2022-08-17T10:01:27.182Z,1003.60
2022-08-17T10:02:27.115Z,1003.58
2022-08-17T10:03:27.120Z,1003.60
2022-08-17T10:04:29.648Z,1003.61
2022-08-17T10:05:27.105Z,1003.59
2022-08-17T10:06:27.077Z,1003.57
2022-08-17T10:07:27.071Z,1003.56
2022-08-17T10:08:27.059Z,1003.54
2022-08-17T10:09:27.049Z,1003.55
2022-08-17T10:10:27.040Z,1003.54
2022-08-17T10:11:33.640Z,1003.55
2022-08-17T10:12:29.848Z,1003.53
2022-08-17T10:13:27.013Z,1003.52
2022-08-17T10:14:37.990Z,1003.55
2022-08-17T10:15:27.029Z,1003.52
2022-08-17T10:16:26.983Z,1003.47
2022-08-17T10:17:26.976Z,1003.52
2022-08-17T10:18:32.030Z,1003.50
2022-08-17T10:19:26.957Z,1003.51
2022-08-17T10:20:26.946Z,1003.48
2022-08-17T10:21:26.937Z,1003.50
2022-08-17T10:22:35.414Z,1003.49
2022-08-17T10:23:26.922Z,1003.47
2022-08-17T10:24:26.910Z,1003.47
2022-08-17T10:25:42.562Z,1003.43
2022-08-17T10:26:26.889Z,1003.43
2022-08-17T10:27:26.880Z,1003.42
2022-08-17T10:28:29.733Z,1003.45
2022-08-17T10:29:26.967Z,1003.44
2022-08-17T10:30:26.861Z,1003.45
2022-08-17T10:31:35.452Z,1003.41
2022-08-17T10:32:26.832Z,1003.41
2022-08-17T10:33:26.821Z,1003.42
2022-08-17T10:34:26.810Z,1003.43
2022-08-17T10:35:26.798Z,1003.42
2022-08-17T10:36:26.790Z,1003.41
2022-08-17T10:37:26.782Z,1003.41
2022-08-17T10:38:26.774Z,1003.40
2022-08-17T10:39:26.912Z,1003.42
2022-08-17T10:40:26.848Z,1003.42
2022-08-17T10:41:26.739Z,1003.45
2022-08-17T10:42:30.535Z,1003.44
2022-08-17T10:43:26.725Z,1003.44
2022-08-17T10:44:39.217Z,1003.42
2022-08-17T10:45:26.704Z,1003.43
2022-08-17T10:46:31.176Z,1003.44
2022-08-17T10:47:26.683Z,1003.40
2022-08-17T10:48:26.675Z,1003.40
2022-08-17T10:49:26.669Z,1003.41
2022-08-17T10:50:26.654Z,1003.42
2022-08-17T10:51:26.645Z,1003.40
2022-08-17T10:52:26.639Z,1003.38
2022-08-17T10:53:26.622Z,1003.38
2022-08-17T10:54:26.613Z,1003.37
2022-08-17T10:55:26.617Z,1003.35
2022-08-17T10:56:26.594Z,1003.37
2022-08-17T10:57:26.587Z,1003.35
2022-08-17T10:58:27.141Z,1003.34
2022-08-17T10:59:26.563Z,1003.33
2022-08-17T11:00:27.742Z,1003.33
2022-08-17T11:01:26.591Z,1003.28
2022-08-17T11:02:26.537Z,1003.33
2022-08-17T11:03:26.524Z,1003.31
2022-08-17T11:04:26.517Z,1003.32
2022-08-17T11:05:26.503Z,1003.29
2022-08-17T11:06:26.507Z,1003.31
2022-08-17T11:07:26.488Z,1003.33
2022-08-17T11:08:26.482Z,1003.31
2022-08-17T11:09:26.483Z,1003.32
2022-08-17T11:10:26.459Z,1003.31
2022-08-17T11:11:26.448Z,1003.34
2022-08-17T11:12:26.438Z,1003.30
2022-08-17T11:13:26.426Z,1003.29
2022-08-17T11:14:26.416Z,1003.32
2022-08-17T11:15:26.405Z,1003.32
2022-08-17T11:16:26.395Z,1003.32
2022-08-17T11:17:26.392Z,1003.33
2022-08-17T11:18:26.380Z,1003.34
2022-08-17T11:19:26.372Z,1003.35
2022-08-17T11:20:26.360Z,1003.36
2022-08-17T11:21:26.349Z,1003.37
2022-08-17T11:22:31.264Z,1003.35
2022-08-17T11:23:26.337Z,1003.35
2022-08-17T11:24:26.321Z,1003.38
2022-08-17T11:25:26.311Z,1003.36
2022-08-17T11:26:26.433Z,1003.35
2022-08-17T11:27:26.296Z,1003.37
2022-08-17T11:28:26.307Z,1003.40
2022-08-17T11:29:26.274Z,1003.43
2022-08-17T11:30:26.710Z,1003.42
2022-08-17T11:31:39.336Z,1003.42
2022-08-17T11:32:26.238Z,1003.44
2022-08-17T11:33:26.231Z,1003.45
2022-08-17T11:34:26.257Z,1003.46
2022-08-17T11:35:26.881Z,1003.44
2022-08-17T11:36:26.200Z,1003.45
2022-08-17T11:37:26.194Z,1003.45
2022-08-17T11:38:26.184Z,1003.47
2022-08-17T11:39:26.201Z,1003.47
2022-08-17T11:40:26.163Z,1003.44
2022-08-17T11:41:26.153Z,1003.45
2022-08-17T11:42:26.145Z,1003.45
2022-08-17T11:43:26.133Z,1003.48
2022-08-17T11:44:26.124Z,1003.41
2022-08-17T11:45:32.579Z,1003.45
2022-08-17T11:46:26.104Z,1003.45
2022-08-17T11:47:26.101Z,1003.47
2022-08-17T11:48:28.348Z,1003.44
2022-08-17T11:49:26.076Z,1003.46
2022-08-17T11:50:28.033Z,1003.48
2022-08-17T11:51:26.061Z,1003.44
2022-08-17T11:52:26.051Z,1003.43
2022-08-17T11:53:26.039Z,1003.40
2022-08-17T11:54:34.618Z,1003.42
2022-08-17T11:55:34.993Z,1003.38
2022-08-17T11:56:26.013Z,1003.39
2022-08-17T11:57:26.003Z,1003.41
2022-08-17T11:58:25.992Z,1003.42
2022-08-17T11:59:25.983Z,1003.41
2022-08-17T12:00:25.999Z,1003.46
2022-08-17T12:01:25.970Z,1003.45
2022-08-17T12:02:25.952Z,1003.46
2022-08-17T12:03:25.999Z,1003.46
2022-08-17T12:04:26.066Z,1003.49
2022-08-17T12:05:25.932Z,1003.55